sensor_id;sensor_type;location;lat;lon;timestamp;P1;durP1;ratioP1;P2;durP2;ratioP2
67757;SDS011;54562;47.620;18.786;2022-11-06T00:02:47;11.90;;;7.10;;
67757;SDS011;54562;47.620;18.786;2022-11-06T00:05:55;11.40;;;6.60;;
67757;SDS011;54562;47.620;18.786;2022-11-06T00:09:20;12.30;;;6.80;;
67757;SDS011;54562;47.620;18.786;2022-11-06T00:12:29;12.40;;;6.80;;
67757;SDS011;54562;47.620;18.786;2022-11-06T00:15:36;13.20;;;7.30;;
67757;SDS011;54562;47.620;18.786;2022-11-06T00:18:44;12.10;;;6.60;;
67757;SDS011;54562;47.620;18.786;2022-11-06T00:21:52;12.30;;;7.30;;
67757;SDS011;54562;47.620;18.786;2022-11-06T00:25:00;12.50;;;6.80;;
67757;SDS011;54562;47.620;18.786;2022-11-06T00:28:09;12.80;;;7.00;;
67757;SDS011;54562;47.620;18.786;2022-11-06T00:31:18;13.50;;;6.90;;
67757;SDS011;54562;47.620;18.786;2022-11-06T00:34:28;12.30;;;6.90;;
67757;SDS011;54562;47.620;18.786;2022-11-06T00:37:36;12.30;;;7.30;;
67757;SDS011;54562;47.620;18.786;2022-11-06T00:40:44;10.80;;;6.20;;
67757;SDS011;54562;47.620;18.786;2022-11-06T00:43:55;12.40;;;7.00;;
67757;SDS011;54562;47.620;18.786;2022-11-06T00:47:04;12.30;;;7.30;;
67757;SDS011;54562;47.620;18.786;2022-11-06T00:50:12;11.00;;;6.40;;
67757;SDS011;54562;47.620;18.786;2022-11-06T00:53:21;12.40;;;6.90;;
67757;SDS011;54562;47.620;18.786;2022-11-06T00:56:29;11.80;;;6.40;;
67757;SDS011;54562;47.620;18.786;2022-11-06T00:59:38;13.70;;;6.50;;
67757;SDS011;54562;47.620;18.786;2022-11-06T01:02:46;12.60;;;6.20;;
67757;SDS011;54562;47.620;18.786;2022-11-06T01:05:54;12.20;;;6.20;;
67757;SDS011;54562;47.620;18.786;2022-11-06T01:09:10;12.30;;;6.50;;
67757;SDS011;54562;47.620;18.786;2022-11-06T01:12:20;11.30;;;6.50;;
67757;SDS011;54562;47.620;18.786;2022-11-06T01:15:28;11.60;;;6.10;;
67757;SDS011;54562;47.620;18.786;2022-11-06T01:18:37;12.40;;;6.40;;
67757;SDS011;54562;47.620;18.786;2022-11-06T01:21:49;11.70;;;6.10;;
67757;SDS011;54562;47.620;18.786;2022-11-06T01:24:58;11.60;;;6.00;;
67757;SDS011;54562;47.620;18.786;2022-11-06T01:28:07;10.90;;;5.70;;
67757;SDS011;54562;47.620;18.786;2022-11-06T01:31:19;10.10;;;6.10;;
67757;SDS011;54562;47.620;18.786;2022-11-06T01:34:28;11.00;;;6.10;;
67757;SDS011;54562;47.620;18.786;2022-11-06T01:37:36;11.00;;;5.90;;
67757;SDS011;54562;47.620;18.786;2022-11-06T01:40:47;11.10;;;6.30;;
67757;SDS011;54562;47.620;18.786;2022-11-06T01:43:57;10.50;;;5.90;;
67757;SDS011;54562;47.620;18.786;2022-11-06T01:47:20;10.50;;;5.80;;
67757;SDS011;54562;47.620;18.786;2022-11-06T01:50:29;10.40;;;6.00;;
67757;SDS011;54562;47.620;18.786;2022-11-06T01:53:38;10.40;;;5.80;;
67757;SDS011;54562;47.620;18.786;2022-11-06T01:56:48;11.70;;;6.30;;
67757;SDS011;54562;47.620;18.786;2022-11-06T01:59:58;11.30;;;6.40;;
67757;SDS011;54562;47.620;18.786;2022-11-06T02:03:06;12.60;;;6.40;;
67757;SDS011;54562;47.620;18.786;2022-11-06T02:06:16;10.00;;;5.70;;
67757;SDS011;54562;47.620;18.786;2022-11-06T02:09:24;10.30;;;5.90;;
67757;SDS011;54562;47.620;18.786;2022-11-06T02:12:49;11.10;;;6.20;;
67757;SDS011;54562;47.620;18.786;2022-11-06T02:16:12;11.50;;;5.70;;
67757;SDS011;54562;47.620;18.786;2022-11-06T02:19:43;10.50;;;6.00;;
67757;SDS011;54562;47.620;18.786;2022-11-06T02:23:09;11.00;;;5.80;;
67757;SDS011;54562;47.620;18.786;2022-11-06T02:26:52;10.40;;;5.60;;
67757;SDS011;54562;47.620;18.786;2022-11-06T02:30:11;11.00;;;5.80;;
67757;SDS011;54562;47.620;18.786;2022-11-06T02:33:25;10.40;;;5.60;;
67757;SDS011;54562;47.620;18.786;2022-11-06T02:36:45;10.30;;;5.60;;
67757;SDS011;54562;47.620;18.786;2022-11-06T02:39:59;10.00;;;5.40;;
67757;SDS011;54562;47.620;18.786;2022-11-06T02:43:11;11.20;;;5.90;;
67757;SDS011;54562;47.620;18.786;2022-11-06T02:46:24;9.90;;;5.30;;
67757;SDS011;54562;47.620;18.786;2022-11-06T02:49:39;10.40;;;5.30;;
67757;SDS011;54562;47.620;18.786;2022-11-06T02:52:53;8.40;;;4.60;;
67757;SDS011;54562;47.620;18.786;2022-11-06T02:56:13;9.90;;;5.30;;
67757;SDS011;54562;47.620;18.786;2022-11-06T02:59:25;11.00;;;5.40;;
67757;SDS011;54562;47.620;18.786;2022-11-06T03:02:43;8.80;;;5.00;;
67757;SDS011;54562;47.620;18.786;2022-11-06T03:05:57;9.50;;;5.10;;
67757;SDS011;54562;47.620;18.786;2022-11-06T03:09:11;8.80;;;4.70;;
67757;SDS011;54562;47.620;18.786;2022-11-06T03:12:27;9.90;;;5.00;;
67757;SDS011;54562;47.620;18.786;2022-11-06T03:15:40;10.50;;;4.90;;
67757;SDS011;54562;47.620;18.786;2022-11-06T03:18:57;8.30;;;4.60;;
67757;SDS011;54562;47.620;18.786;2022-11-06T03:22:13;8.80;;;4.90;;
67757;SDS011;54562;47.620;18.786;2022-11-06T03:25:32;9.20;;;4.60;;
67757;SDS011;54562;47.620;18.786;2022-11-06T03:28:58;10.70;;;5.30;;
67757;SDS011;54562;47.620;18.786;2022-11-06T03:32:19;9.40;;;5.20;;
67757;SDS011;54562;47.620;18.786;2022-11-06T03:35:37;10.30;;;5.50;;
67757;SDS011;54562;47.620;18.786;2022-11-06T03:38:50;10.50;;;5.50;;
67757;SDS011;54562;47.620;18.786;2022-11-06T03:42:06;11.60;;;5.20;;
67757;SDS011;54562;47.620;18.786;2022-11-06T03:45:20;9.10;;;5.00;;
67757;SDS011;54562;47.620;18.786;2022-11-06T03:48:33;9.30;;;5.00;;
67757;SDS011;54562;47.620;18.786;2022-11-06T03:51:48;10.50;;;5.80;;
67757;SDS011;54562;47.620;18.786;2022-11-06T03:55:02;10.70;;;5.60;;
67757;SDS011;54562;47.620;18.786;2022-11-06T03:58:15;9.10;;;4.90;;
67757;SDS011;54562;47.620;18.786;2022-11-06T04:01:31;9.60;;;5.30;;
67757;SDS011;54562;47.620;18.786;2022-11-06T04:04:46;11.10;;;5.20;;
67757;SDS011;54562;47.620;18.786;2022-11-06T04:07:57;9.00;;;5.10;;
67757;SDS011;54562;47.620;18.786;2022-11-06T04:11:25;9.80;;;5.10;;
67757;SDS011;54562;47.620;18.786;2022-11-06T04:14:55;9.90;;;5.00;;
67757;SDS011;54562;47.620;18.786;2022-11-06T04:18:13;8.60;;;4.70;;
67757;SDS011;54562;47.620;18.786;2022-11-06T04:21:29;10.10;;;5.00;;
67757;SDS011;54562;47.620;18.786;2022-11-06T04:24:58;10.00;;;5.60;;
67757;SDS011;54562;47.620;18.786;2022-11-06T04:28:37;9.80;;;5.20;;
67757;SDS011;54562;47.620;18.786;2022-11-06T04:31:57;11.80;;;5.80;;
67757;SDS011;54562;47.620;18.786;2022-11-06T04:35:16;10.70;;;5.50;;
67757;SDS011;54562;47.620;18.786;2022-11-06T04:38:37;9.90;;;5.50;;
67757;SDS011;54562;47.620;18.786;2022-11-06T04:45:12;10.70;;;5.00;;
67757;SDS011;54562;47.620;18.786;2022-11-06T04:48:26;11.30;;;5.90;;
67757;SDS011;54562;47.620;18.786;2022-11-06T04:51:36;10.30;;;5.70;;
67757;SDS011;54562;47.620;18.786;2022-11-06T04:54:48;10.60;;;5.70;;
67757;SDS011;54562;47.620;18.786;2022-11-06T04:57:57;10.40;;;6.10;;
67757;SDS011;54562;47.620;18.786;2022-11-06T05:01:07;11.50;;;5.90;;
67757;SDS011;54562;47.620;18.786;2022-11-06T05:04:15;11.20;;;5.90;;
67757;SDS011;54562;47.620;18.786;2022-11-06T05:07:23;14.30;;;6.30;;
67757;SDS011;54562;47.620;18.786;2022-11-06T05:10:31;12.10;;;6.10;;
67757;SDS011;54562;47.620;18.786;2022-11-06T05:13:39;10.70;;;5.60;;
67757;SDS011;54562;47.620;18.786;2022-11-06T05:16:47;11.80;;;6.40;;
67757;SDS011;54562;47.620;18.786;2022-11-06T05:19:55;11.40;;;6.50;;
67757;SDS011;54562;47.620;18.786;2022-11-06T05:23:03;12.50;;;6.30;;
67757;SDS011;54562;47.620;18.786;2022-11-06T05:26:11;12.30;;;6.50;;
67757;SDS011;54562;47.620;18.786;2022-11-06T05:29:20;11.50;;;6.40;;
67757;SDS011;54562;47.620;18.786;2022-11-06T05:32:28;11.10;;;6.60;;
67757;SDS011;54562;47.620;18.786;2022-11-06T05:35:36;13.60;;;7.10;;
67757;SDS011;54562;47.620;18.786;2022-11-06T05:38:44;11.90;;;6.80;;
67757;SDS011;54562;47.620;18.786;2022-11-06T05:41:52;11.20;;;6.40;;
67757;SDS011;54562;47.620;18.786;2022-11-06T05:45:00;10.90;;;6.50;;
67757;SDS011;54562;47.620;18.786;2022-11-06T05:48:08;13.90;;;7.00;;
67757;SDS011;54562;47.620;18.786;2022-11-06T05:51:17;12.70;;;6.80;;
67757;SDS011;54562;47.620;18.786;2022-11-06T05:54:25;11.50;;;6.40;;
67757;SDS011;54562;47.620;18.786;2022-11-06T05:57:33;11.80;;;6.90;;
67757;SDS011;54562;47.620;18.786;2022-11-06T06:00:41;11.90;;;6.80;;
67757;SDS011;54562;47.620;18.786;2022-11-06T06:03:49;13.00;;;7.20;;
67757;SDS011;54562;47.620;18.786;2022-11-06T06:06:57;13.00;;;6.80;;
67757;SDS011;54562;47.620;18.786;2022-11-06T06:10:07;13.50;;;6.80;;
67757;SDS011;54562;47.620;18.786;2022-11-06T06:13:16;11.60;;;6.50;;
67757;SDS011;54562;47.620;18.786;2022-11-06T06:16:25;15.10;;;7.20;;
67757;SDS011;54562;47.620;18.786;2022-11-06T06:19:33;10.70;;;6.40;;
67757;SDS011;54562;47.620;18.786;2022-11-06T06:22:41;13.20;;;6.50;;
67757;SDS011;54562;47.620;18.786;2022-11-06T06:25:58;12.90;;;7.10;;
67757;SDS011;54562;47.620;18.786;2022-11-06T06:29:06;12.90;;;6.70;;
67757;SDS011;54562;47.620;18.786;2022-11-06T06:32:14;14.00;;;7.20;;
67757;SDS011;54562;47.620;18.786;2022-11-06T06:35:22;13.90;;;7.50;;
67757;SDS011;54562;47.620;18.786;2022-11-06T06:38:30;12.70;;;6.70;;
67757;SDS011;54562;47.620;18.786;2022-11-06T06:41:38;12.70;;;7.10;;
67757;SDS011;54562;47.620;18.786;2022-11-06T06:44:47;14.60;;;6.90;;
67757;SDS011;54562;47.620;18.786;2022-11-06T06:47:54;13.20;;;7.40;;
67757;SDS011;54562;47.620;18.786;2022-11-06T06:51:06;13.50;;;7.20;;
67757;SDS011;54562;47.620;18.786;2022-11-06T06:54:14;12.70;;;7.60;;
67757;SDS011;54562;47.620;18.786;2022-11-06T06:57:22;12.70;;;7.60;;
67757;SDS011;54562;47.620;18.786;2022-11-06T07:00:30;11.90;;;7.10;;
67757;SDS011;54562;47.620;18.786;2022-11-06T07:03:38;13.30;;;7.40;;
67757;SDS011;54562;47.620;18.786;2022-11-06T07:06:46;14.40;;;7.10;;
67757;SDS011;54562;47.620;18.786;2022-11-06T07:09:54;14.70;;;6.80;;
67757;SDS011;54562;47.620;18.786;2022-11-06T07:13:03;13.20;;;6.50;;
67757;SDS011;54562;47.620;18.786;2022-11-06T07:16:12;15.00;;;6.70;;
67757;SDS011;54562;47.620;18.786;2022-11-06T07:19:20;13.60;;;6.90;;
67757;SDS011;54562;47.620;18.786;2022-11-06T07:22:29;14.80;;;7.60;;
67757;SDS011;54562;47.620;18.786;2022-11-06T07:25:41;14.40;;;7.20;;
67757;SDS011;54562;47.620;18.786;2022-11-06T07:28:50;13.90;;;7.50;;
67757;SDS011;54562;47.620;18.786;2022-11-06T07:31:57;14.00;;;7.80;;
67757;SDS011;54562;47.620;18.786;2022-11-06T07:35:07;14.20;;;7.20;;
67757;SDS011;54562;47.620;18.786;2022-11-06T07:38:15;13.20;;;7.40;;
67757;SDS011;54562;47.620;18.786;2022-11-06T07:41:24;14.30;;;6.80;;
67757;SDS011;54562;47.620;18.786;2022-11-06T07:44:32;14.20;;;7.40;;
67757;SDS011;54562;47.620;18.786;2022-11-06T07:47:40;15.20;;;7.40;;
67757;SDS011;54562;47.620;18.786;2022-11-06T07:50:48;14.40;;;7.60;;
67757;SDS011;54562;47.620;18.786;2022-11-06T07:53:56;12.80;;;7.40;;
67757;SDS011;54562;47.620;18.786;2022-11-06T07:57:04;13.60;;;7.30;;
67757;SDS011;54562;47.620;18.786;2022-11-06T08:00:13;18.50;;;7.80;;
67757;SDS011;54562;47.620;18.786;2022-11-06T08:06:29;12.30;;;6.70;;
67757;SDS011;54562;47.620;18.786;2022-11-06T08:09:37;15.60;;;7.50;;
67757;SDS011;54562;47.620;18.786;2022-11-06T08:12:45;14.20;;;7.00;;
67757;SDS011;54562;47.620;18.786;2022-11-06T08:15:52;12.50;;;6.70;;
67757;SDS011;54562;47.620;18.786;2022-11-06T08:19:00;16.30;;;7.50;;
67757;SDS011;54562;47.620;18.786;2022-11-06T08:22:09;15.50;;;7.10;;
67757;SDS011;54562;47.620;18.786;2022-11-06T08:25:17;13.60;;;7.40;;
67757;SDS011;54562;47.620;18.786;2022-11-06T08:28:26;20.50;;;8.20;;
67757;SDS011;54562;47.620;18.786;2022-11-06T08:31:34;14.30;;;7.70;;
67757;SDS011;54562;47.620;18.786;2022-11-06T08:34:46;15.10;;;7.30;;
67757;SDS011;54562;47.620;18.786;2022-11-06T08:37:54;13.70;;;7.30;;
67757;SDS011;54562;47.620;18.786;2022-11-06T08:41:09;14.80;;;8.20;;
67757;SDS011;54562;47.620;18.786;2022-11-06T08:44:17;13.40;;;7.00;;
67757;SDS011;54562;47.620;18.786;2022-11-06T08:47:25;12.90;;;7.20;;
67757;SDS011;54562;47.620;18.786;2022-11-06T08:50:35;14.20;;;7.80;;
67757;SDS011;54562;47.620;18.786;2022-11-06T08:53:44;13.60;;;7.10;;
67757;SDS011;54562;47.620;18.786;2022-11-06T08:56:52;12.90;;;7.40;;
67757;SDS011;54562;47.620;18.786;2022-11-06T09:00:02;15.40;;;8.20;;
67757;SDS011;54562;47.620;18.786;2022-11-06T09:03:13;15.30;;;7.50;;
67757;SDS011;54562;47.620;18.786;2022-11-06T09:06:22;15.60;;;7.70;;
67757;SDS011;54562;47.620;18.786;2022-11-06T09:09:31;12.20;;;6.90;;
67757;SDS011;54562;47.620;18.786;2022-11-06T09:12:39;15.40;;;7.60;;
67757;SDS011;54562;47.620;18.786;2022-11-06T09:15:47;14.40;;;7.60;;
67757;SDS011;54562;47.620;18.786;2022-11-06T09:18:56;14.50;;;8.40;;
67757;SDS011;54562;47.620;18.786;2022-11-06T09:22:05;15.20;;;7.80;;
67757;SDS011;54562;47.620;18.786;2022-11-06T09:25:14;16.00;;;8.80;;
67757;SDS011;54562;47.620;18.786;2022-11-06T09:28:22;16.00;;;8.60;;
67757;SDS011;54562;47.620;18.786;2022-11-06T09:31:30;16.00;;;8.50;;
67757;SDS011;54562;47.620;18.786;2022-11-06T09:34:38;16.10;;;8.70;;
67757;SDS011;54562;47.620;18.786;2022-11-06T09:37:45;16.70;;;8.30;;
67757;SDS011;54562;47.620;18.786;2022-11-06T09:40:55;16.50;;;8.60;;
67757;SDS011;54562;47.620;18.786;2022-11-06T09:44:20;14.90;;;8.60;;
67757;SDS011;54562;47.620;18.786;2022-11-06T09:47:48;17.60;;;10.00;;
67757;SDS011;54562;47.620;18.786;2022-11-06T09:51:13;18.40;;;10.40;;
67757;SDS011;54562;47.620;18.786;2022-11-06T09:54:29;17.70;;;9.50;;
67757;SDS011;54562;47.620;18.786;2022-11-06T09:57:46;16.20;;;9.20;;
67757;SDS011;54562;47.620;18.786;2022-11-06T10:00:57;15.90;;;9.30;;
67757;SDS011;54562;47.620;18.786;2022-11-06T10:04:19;17.00;;;9.00;;
67757;SDS011;54562;47.620;18.786;2022-11-06T10:07:35;17.70;;;9.90;;
67757;SDS011;54562;47.620;18.786;2022-11-06T10:10:52;16.30;;;8.50;;
67757;SDS011;54562;47.620;18.786;2022-11-06T10:14:13;16.60;;;9.10;;
67757;SDS011;54562;47.620;18.786;2022-11-06T10:17:42;16.10;;;9.30;;
67757;SDS011;54562;47.620;18.786;2022-11-06T10:21:07;17.50;;;8.80;;
67757;SDS011;54562;47.620;18.786;2022-11-06T10:24:26;15.00;;;8.50;;
67757;SDS011;54562;47.620;18.786;2022-11-06T10:27:40;49.60;;;32.00;;
67757;SDS011;54562;47.620;18.786;2022-11-06T10:31:02;20.10;;;11.70;;
67757;SDS011;54562;47.620;18.786;2022-11-06T10:34:23;16.30;;;9.00;;
67757;SDS011;54562;47.620;18.786;2022-11-06T10:37:41;18.00;;;10.10;;
67757;SDS011;54562;47.620;18.786;2022-11-06T10:40:53;15.50;;;8.90;;
67757;SDS011;54562;47.620;18.786;2022-11-06T10:44:03;18.30;;;10.40;;
67757;SDS011;54562;47.620;18.786;2022-11-06T10:47:19;16.90;;;11.30;;
67757;SDS011;54562;47.620;18.786;2022-11-06T10:50:36;14.20;;;8.60;;
67757;SDS011;54562;47.620;18.786;2022-11-06T10:54:03;16.90;;;9.50;;
67757;SDS011;54562;47.620;18.786;2022-11-06T10:57:29;16.50;;;9.30;;
67757;SDS011;54562;47.620;18.786;2022-11-06T11:00:45;15.30;;;8.70;;
67757;SDS011;54562;47.620;18.786;2022-11-06T11:04:17;16.40;;;8.80;;
67757;SDS011;54562;47.620;18.786;2022-11-06T11:07:27;18.10;;;10.30;;
67757;SDS011;54562;47.620;18.786;2022-11-06T11:10:37;15.30;;;9.80;;
67757;SDS011;54562;47.620;18.786;2022-11-06T11:13:47;18.60;;;10.70;;
67757;SDS011;54562;47.620;18.786;2022-11-06T11:17:00;17.80;;;10.70;;
67757;SDS011;54562;47.620;18.786;2022-11-06T11:20:31;16.50;;;9.60;;
67757;SDS011;54562;47.620;18.786;2022-11-06T11:23:40;16.40;;;10.20;;
67757;SDS011;54562;47.620;18.786;2022-11-06T11:26:49;17.40;;;10.70;;
67757;SDS011;54562;47.620;18.786;2022-11-06T11:29:59;18.60;;;10.30;;
67757;SDS011;54562;47.620;18.786;2022-11-06T11:33:13;16.70;;;10.00;;
67757;SDS011;54562;47.620;18.786;2022-11-06T11:36:25;19.60;;;12.30;;
67757;SDS011;54562;47.620;18.786;2022-11-06T11:39:52;18.50;;;11.30;;
67757;SDS011;54562;47.620;18.786;2022-11-06T11:43:16;19.50;;;11.00;;
67757;SDS011;54562;47.620;18.786;2022-11-06T11:46:29;17.20;;;10.30;;
67757;SDS011;54562;47.620;18.786;2022-11-06T11:49:40;17.30;;;10.20;;
67757;SDS011;54562;47.620;18.786;2022-11-06T11:52:50;17.80;;;9.70;;
67757;SDS011;54562;47.620;18.786;2022-11-06T11:56:00;17.60;;;10.40;;
67757;SDS011;54562;47.620;18.786;2022-11-06T11:59:17;17.00;;;10.60;;
67757;SDS011;54562;47.620;18.786;2022-11-06T12:02:30;17.30;;;9.50;;
67757;SDS011;54562;47.620;18.786;2022-11-06T12:05:48;17.40;;;9.60;;
67757;SDS011;54562;47.620;18.786;2022-11-06T12:08:57;17.00;;;10.80;;
67757;SDS011;54562;47.620;18.786;2022-11-06T12:12:08;16.50;;;9.80;;
67757;SDS011;54562;47.620;18.786;2022-11-06T12:15:30;16.90;;;9.70;;
67757;SDS011;54562;47.620;18.786;2022-11-06T12:18:47;21.30;;;14.00;;
67757;SDS011;54562;47.620;18.786;2022-11-06T12:22:08;16.10;;;9.70;;
67757;SDS011;54562;47.620;18.786;2022-11-06T12:25:23;16.10;;;9.30;;
67757;SDS011;54562;47.620;18.786;2022-11-06T12:28:37;17.90;;;10.50;;
67757;SDS011;54562;47.620;18.786;2022-11-06T12:31:52;16.40;;;9.90;;
67757;SDS011;54562;47.620;18.786;2022-11-06T12:35:09;19.40;;;9.40;;
67757;SDS011;54562;47.620;18.786;2022-11-06T12:38:29;16.50;;;9.30;;
67757;SDS011;54562;47.620;18.786;2022-11-06T12:41:45;20.40;;;10.70;;
67757;SDS011;54562;47.620;18.786;2022-11-06T12:44:56;16.20;;;9.20;;
67757;SDS011;54562;47.620;18.786;2022-11-06T12:48:12;19.40;;;11.90;;
67757;SDS011;54562;47.620;18.786;2022-11-06T12:51:39;16.60;;;9.90;;
67757;SDS011;54562;47.620;18.786;2022-11-06T12:55:12;17.80;;;9.70;;
67757;SDS011;54562;47.620;18.786;2022-11-06T12:58:54;17.80;;;9.80;;
67757;SDS011;54562;47.620;18.786;2022-11-06T13:02:20;15.70;;;9.20;;
67757;SDS011;54562;47.620;18.786;2022-11-06T13:05:42;15.90;;;9.40;;
67757;SDS011;54562;47.620;18.786;2022-11-06T13:09:03;15.90;;;9.40;;
67757;SDS011;54562;47.620;18.786;2022-11-06T13:12:23;18.80;;;10.70;;
67757;SDS011;54562;47.620;18.786;2022-11-06T13:15:42;20.10;;;10.00;;
67757;SDS011;54562;47.620;18.786;2022-11-06T13:19:05;17.10;;;9.90;;
67757;SDS011;54562;47.620;18.786;2022-11-06T13:22:24;16.60;;;9.50;;
67757;SDS011;54562;47.620;18.786;2022-11-06T13:25:45;19.60;;;9.80;;
67757;SDS011;54562;47.620;18.786;2022-11-06T13:29:01;19.30;;;11.30;;
67757;SDS011;54562;47.620;18.786;2022-11-06T13:32:13;17.50;;;11.10;;
67757;SDS011;54562;47.620;18.786;2022-11-06T13:35:24;19.10;;;11.00;;
67757;SDS011;54562;47.620;18.786;2022-11-06T13:38:37;27.40;;;15.10;;
67757;SDS011;54562;47.620;18.786;2022-11-06T13:41:48;19.70;;;12.10;;
67757;SDS011;54562;47.620;18.786;2022-11-06T13:44:59;18.10;;;9.50;;
67757;SDS011;54562;47.620;18.786;2022-11-06T13:51:48;13.60;;;8.20;;
67757;SDS011;54562;47.620;18.786;2022-11-06T13:55:07;19.60;;;8.00;;
67757;SDS011;54562;47.620;18.786;2022-11-06T13:58:38;15.90;;;8.80;;
67757;SDS011;54562;47.620;18.786;2022-11-06T14:02:08;18.00;;;9.30;;
67757;SDS011;54562;47.620;18.786;2022-11-06T14:05:49;16.90;;;9.30;;
67757;SDS011;54562;47.620;18.786;2022-11-06T14:09:01;19.20;;;9.60;;
67757;SDS011;54562;47.620;18.786;2022-11-06T14:12:18;19.70;;;10.50;;
67757;SDS011;54562;47.620;18.786;2022-11-06T14:15:31;18.90;;;10.80;;
67757;SDS011;54562;47.620;18.786;2022-11-06T14:18:43;19.00;;;11.10;;
67757;SDS011;54562;47.620;18.786;2022-11-06T14:22:22;20.10;;;11.00;;
67757;SDS011;54562;47.620;18.786;2022-11-06T14:25:59;20.20;;;11.60;;
67757;SDS011;54562;47.620;18.786;2022-11-06T14:33:10;16.80;;;9.10;;
67757;SDS011;54562;47.620;18.786;2022-11-06T14:36:39;17.50;;;10.40;;
67757;SDS011;54562;47.620;18.786;2022-11-06T14:40:09;17.80;;;10.40;;
67757;SDS011;54562;47.620;18.786;2022-11-06T14:43:22;17.40;;;9.90;;
67757;SDS011;54562;47.620;18.786;2022-11-06T14:46:33;16.50;;;9.60;;
67757;SDS011;54562;47.620;18.786;2022-11-06T14:49:44;18.20;;;9.40;;
67757;SDS011;54562;47.620;18.786;2022-11-06T14:52:59;16.70;;;10.00;;
67757;SDS011;54562;47.620;18.786;2022-11-06T14:56:18;18.40;;;10.70;;
67757;SDS011;54562;47.620;18.786;2022-11-06T14:59:33;20.20;;;11.30;;
67757;SDS011;54562;47.620;18.786;2022-11-06T15:02:44;18.60;;;10.50;;
67757;SDS011;54562;47.620;18.786;2022-11-06T15:05:56;19.40;;;10.60;;
67757;SDS011;54562;47.620;18.786;2022-11-06T15:09:12;18.50;;;11.20;;
67757;SDS011;54562;47.620;18.786;2022-11-06T15:13:09;20.50;;;10.30;;
67757;SDS011;54562;47.620;18.786;2022-11-06T15:16:31;16.70;;;9.90;;
67757;SDS011;54562;47.620;18.786;2022-11-06T15:19:46;18.80;;;9.80;;
67757;SDS011;54562;47.620;18.786;2022-11-06T15:23:20;19.60;;;10.60;;
67757;SDS011;54562;47.620;18.786;2022-11-06T15:26:37;18.50;;;11.30;;
67757;SDS011;54562;47.620;18.786;2022-11-06T15:29:55;22.50;;;11.40;;
67757;SDS011;54562;47.620;18.786;2022-11-06T15:33:11;22.20;;;11.10;;
67757;SDS011;54562;47.620;18.786;2022-11-06T15:36:23;19.20;;;10.70;;
67757;SDS011;54562;47.620;18.786;2022-11-06T15:39:39;21.50;;;11.40;;
67757;SDS011;54562;47.620;18.786;2022-11-06T15:43:19;18.30;;;9.90;;
67757;SDS011;54562;47.620;18.786;2022-11-06T15:46:30;18.50;;;10.60;;
67757;SDS011;54562;47.620;18.786;2022-11-06T15:49:39;18.10;;;10.00;;
67757;SDS011;54562;47.620;18.786;2022-11-06T15:52:47;20.70;;;11.40;;
67757;SDS011;54562;47.620;18.786;2022-11-06T15:55:57;19.70;;;11.10;;
67757;SDS011;54562;47.620;18.786;2022-11-06T15:59:11;24.10;;;11.60;;
67757;SDS011;54562;47.620;18.786;2022-11-06T16:02:20;18.90;;;10.90;;
67757;SDS011;54562;47.620;18.786;2022-11-06T16:05:30;22.50;;;12.10;;
67757;SDS011;54562;47.620;18.786;2022-11-06T16:08:41;19.80;;;11.20;;
67757;SDS011;54562;47.620;18.786;2022-11-06T16:11:51;19.50;;;10.80;;
67757;SDS011;54562;47.620;18.786;2022-11-06T16:14:59;22.50;;;11.10;;
67757;SDS011;54562;47.620;18.786;2022-11-06T16:18:11;19.50;;;11.20;;
67757;SDS011;54562;47.620;18.786;2022-11-06T16:21:25;19.00;;;11.10;;
67757;SDS011;54562;47.620;18.786;2022-11-06T16:24:40;18.90;;;10.70;;
67757;SDS011;54562;47.620;18.786;2022-11-06T16:27:51;19.60;;;11.20;;
67757;SDS011;54562;47.620;18.786;2022-11-06T16:31:07;20.70;;;11.60;;
67757;SDS011;54562;47.620;18.786;2022-11-06T16:34:34;18.20;;;11.00;;
67757;SDS011;54562;47.620;18.786;2022-11-06T16:37:49;20.00;;;11.90;;
67757;SDS011;54562;47.620;18.786;2022-11-06T16:41:14;20.00;;;11.60;;
67757;SDS011;54562;47.620;18.786;2022-11-06T16:44:45;20.00;;;11.40;;
67757;SDS011;54562;47.620;18.786;2022-11-06T16:48:23;20.20;;;10.20;;
67757;SDS011;54562;47.620;18.786;2022-11-06T16:51:38;18.60;;;9.10;;
67757;SDS011;54562;47.620;18.786;2022-11-06T16:54:48;19.40;;;10.70;;
67757;SDS011;54562;47.620;18.786;2022-11-06T16:57:58;19.60;;;10.80;;
67757;SDS011;54562;47.620;18.786;2022-11-06T17:01:08;60.80;;;32.40;;
67757;SDS011;54562;47.620;18.786;2022-11-06T17:04:26;27.50;;;15.10;;
67757;SDS011;54562;47.620;18.786;2022-11-06T17:07:34;19.00;;;10.00;;
67757;SDS011;54562;47.620;18.786;2022-11-06T17:10:43;33.50;;;20.90;;
67757;SDS011;54562;47.620;18.786;2022-11-06T17:13:52;31.10;;;19.60;;
67757;SDS011;54562;47.620;18.786;2022-11-06T17:17:01;21.40;;;13.40;;
67757;SDS011;54562;47.620;18.786;2022-11-06T17:20:16;20.70;;;12.10;;
67757;SDS011;54562;47.620;18.786;2022-11-06T17:23:25;20.70;;;11.50;;
67757;SDS011;54562;47.620;18.786;2022-11-06T17:26:42;22.80;;;13.90;;
67757;SDS011;54562;47.620;18.786;2022-11-06T17:29:53;32.30;;;20.80;;
67757;SDS011;54562;47.620;18.786;2022-11-06T17:33:01;33.10;;;20.70;;
67757;SDS011;54562;47.620;18.786;2022-11-06T17:36:14;22.30;;;13.30;;
67757;SDS011;54562;47.620;18.786;2022-11-06T17:39:24;28.00;;;15.10;;
67757;SDS011;54562;47.620;18.786;2022-11-06T17:42:32;24.20;;;13.20;;
67757;SDS011;54562;47.620;18.786;2022-11-06T17:45:40;24.10;;;13.10;;
67757;SDS011;54562;47.620;18.786;2022-11-06T17:48:52;22.00;;;12.40;;
67757;SDS011;54562;47.620;18.786;2022-11-06T17:52:01;23.40;;;12.80;;
67757;SDS011;54562;47.620;18.786;2022-11-06T17:55:09;20.70;;;11.50;;
67757;SDS011;54562;47.620;18.786;2022-11-06T17:58:17;23.20;;;11.90;;
67757;SDS011;54562;47.620;18.786;2022-11-06T18:01:25;21.40;;;11.90;;
67757;SDS011;54562;47.620;18.786;2022-11-06T18:04:33;19.60;;;10.90;;
67757;SDS011;54562;47.620;18.786;2022-11-06T18:07:44;20.00;;;10.80;;
67757;SDS011;54562;47.620;18.786;2022-11-06T18:10:55;20.70;;;11.40;;
67757;SDS011;54562;47.620;18.786;2022-11-06T18:14:03;19.00;;;10.10;;
67757;SDS011;54562;47.620;18.786;2022-11-06T18:17:11;18.80;;;10.90;;
67757;SDS011;54562;47.620;18.786;2022-11-06T18:20:19;19.80;;;10.90;;
67757;SDS011;54562;47.620;18.786;2022-11-06T18:23:27;17.70;;;11.10;;
67757;SDS011;54562;47.620;18.786;2022-11-06T18:26:36;17.90;;;10.60;;
67757;SDS011;54562;47.620;18.786;2022-11-06T18:29:44;19.20;;;10.50;;
67757;SDS011;54562;47.620;18.786;2022-11-06T18:32:52;17.00;;;10.00;;
67757;SDS011;54562;47.620;18.786;2022-11-06T18:36:05;17.30;;;10.20;;
67757;SDS011;54562;47.620;18.786;2022-11-06T18:39:14;18.60;;;11.10;;
67757;SDS011;54562;47.620;18.786;2022-11-06T18:42:25;17.30;;;10.30;;
67757;SDS011;54562;47.620;18.786;2022-11-06T18:45:35;18.00;;;10.90;;
67757;SDS011;54562;47.620;18.786;2022-11-06T18:48:46;20.90;;;11.60;;
67757;SDS011;54562;47.620;18.786;2022-11-06T18:51:54;21.50;;;12.30;;
67757;SDS011;54562;47.620;18.786;2022-11-06T18:55:03;20.90;;;11.90;;
67757;SDS011;54562;47.620;18.786;2022-11-06T18:58:11;18.90;;;10.90;;
67757;SDS011;54562;47.620;18.786;2022-11-06T19:01:21;19.80;;;10.80;;
67757;SDS011;54562;47.620;18.786;2022-11-06T19:04:30;18.20;;;10.20;;